createdAt,value
2023-03-06T00:00:59.437Z,9.00
2023-03-06T00:03:01.176Z,9.00
2023-03-06T00:05:02.878Z,9.00
2023-03-06T00:07:04.631Z,9.00
2023-03-06T00:09:06.494Z,9.00
2023-03-06T00:11:08.164Z,9.00
2023-03-06T00:13:12.964Z,9.00
2023-03-06T00:15:14.719Z,9.00
2023-03-06T00:17:16.313Z,9.00
2023-03-06T00:19:17.972Z,9.00
2023-03-06T00:21:19.595Z,9.00
2023-03-06T00:23:21.252Z,9.00
2023-03-06T00:25:23.467Z,9.10
2023-03-06T00:27:26.215Z,9.00
2023-03-06T00:29:28.014Z,9.00
2023-03-06T00:31:29.759Z,9.00
2023-03-06T00:33:32.549Z,9.00
2023-03-06T00:35:34.264Z,9.00
2023-03-06T00:37:36.202Z,9.00
2023-03-06T00:39:37.874Z,9.00
2023-03-06T00:41:39.568Z,9.00
2023-03-06T00:43:41.378Z,9.00
2023-03-06T00:45:43.120Z,9.00
2023-03-06T00:47:44.757Z,9.00
2023-03-06T00:49:46.558Z,8.90
2023-03-06T00:51:48.310Z,9.00
2023-03-06T00:53:50.151Z,8.90
2023-03-06T00:55:52.893Z,8.90
2023-03-06T00:57:54.639Z,8.90
2023-03-06T00:59:56.294Z,9.00
2023-03-06T01:01:58.198Z,9.00
2023-03-06T01:04:01.672Z,9.00
2023-03-06T01:06:03.762Z,8.90
2023-03-06T01:08:06.299Z,8.90
2023-03-06T01:10:08.638Z,8.90
2023-03-06T01:12:10.388Z,8.90
2023-03-06T01:14:12.069Z,8.90
2023-03-06T01:16:15.269Z,9.00
2023-03-06T01:18:16.951Z,8.90
2023-03-06T01:20:18.799Z,8.90
2023-03-06T01:22:20.473Z,8.90
2023-03-06T01:24:23.945Z,8.90
2023-03-06T01:26:25.772Z,8.90
2023-03-06T01:28:27.547Z,8.90
2023-03-06T01:30:30.434Z,8.80
2023-03-06T01:32:32.865Z,8.90
2023-03-06T01:34:34.521Z,8.80
2023-03-06T01:36:36.195Z,8.80
2023-03-06T01:38:37.908Z,8.90
2023-03-06T01:40:39.987Z,8.80
2023-03-06T01:42:42.054Z,8.80
2023-03-06T01:44:59.907Z,8.80
2023-03-06T01:47:02.409Z,8.90
2023-03-06T01:49:16.409Z,8.80
2023-03-06T01:51:18.214Z,8.80
2023-03-06T01:53:20.426Z,8.80
2023-03-06T01:55:24.764Z,8.80
2023-03-06T01:57:28.840Z,8.80
2023-03-06T01:59:33.348Z,8.80
2023-03-06T02:01:35.321Z,8.80
2023-03-06T02:03:37.500Z,8.80
2023-03-06T02:05:41.769Z,8.80
2023-03-06T02:07:44.598Z,8.80
2023-03-06T02:09:48.369Z,8.80
2023-03-06T02:11:50.642Z,8.70
2023-03-06T02:13:53.491Z,8.80
2023-03-06T02:15:55.544Z,8.70
2023-03-06T02:17:57.339Z,8.80
2023-03-06T02:20:14.554Z,8.70
2023-03-06T02:22:16.299Z,8.80
2023-03-06T02:24:29.521Z,8.80
2023-03-06T02:26:33.050Z,8.80
2023-03-06T02:28:35.198Z,8.70
2023-03-06T02:30:37.269Z,8.70
2023-03-06T02:32:38.975Z,8.70
2023-03-06T02:34:40.636Z,8.70
2023-03-06T02:36:53.981Z,8.70
2023-03-06T02:38:56.076Z,8.70
2023-03-06T02:40:58.035Z,8.70
2023-03-06T02:43:03.310Z,8.70
2023-03-06T02:45:07.316Z,8.70
2023-03-06T02:47:09.015Z,8.70
2023-03-06T02:49:10.624Z,8.70
2023-03-06T02:51:12.286Z,8.70
2023-03-06T02:53:15.158Z,8.70
2023-03-06T02:55:16.862Z,8.70
2023-03-06T02:57:18.626Z,8.70
2023-03-06T02:59:20.802Z,8.70
2023-03-06T03:01:23.039Z,8.70
2023-03-06T03:03:24.795Z,8.70
2023-03-06T03:05:27.934Z,8.70
2023-03-06T03:07:35.826Z,8.70
2023-03-06T03:09:37.818Z,8.70
2023-03-06T03:11:40.423Z,8.70
2023-03-06T03:13:42.152Z,8.70
2023-03-06T03:15:57.326Z,8.70
2023-03-06T03:17:59.548Z,8.60
2023-03-06T03:20:01.373Z,8.70
2023-03-06T03:22:03.123Z,8.80
2023-03-06T03:24:05.054Z,8.70
2023-03-06T03:26:08.176Z,8.70
2023-03-06T03:28:11.205Z,8.70
2023-03-06T03:30:14.564Z,8.70
2023-03-06T03:32:16.336Z,8.70
2023-03-06T03:34:18.950Z,8.70
2023-03-06T03:36:20.836Z,8.70
2023-03-06T03:38:23.723Z,8.70
2023-03-06T03:40:25.782Z,8.60
2023-03-06T03:42:27.768Z,8.60
2023-03-06T03:44:29.612Z,8.60
2023-03-06T03:46:31.842Z,8.60
2023-03-06T03:48:35.079Z,8.60
2023-03-06T03:50:37.106Z,8.60
2023-03-06T03:52:38.912Z,8.70
2023-03-06T03:54:40.678Z,8.60
2023-03-06T03:56:42.330Z,8.60
2023-03-06T03:58:50.113Z,8.60
2023-03-06T04:00:52.055Z,8.60
2023-03-06T04:02:57.755Z,8.60
2023-03-06T04:05:07.837Z,8.60
2023-03-06T04:07:09.841Z,8.60
2023-03-06T04:09:12.965Z,8.60
2023-03-06T04:11:15.209Z,8.60
2023-03-06T04:13:21.833Z,8.60
2023-03-06T04:15:24.135Z,8.60
2023-03-06T04:17:26.321Z,8.50
2023-03-06T04:19:31.133Z,8.60
2023-03-06T04:21:33.292Z,8.60
2023-03-06T04:23:35.428Z,8.60
2023-03-06T04:25:38.140Z,8.50
2023-03-06T04:27:41.825Z,8.60
2023-03-06T04:29:43.781Z,8.50
2023-03-06T04:31:45.588Z,8.50
2023-03-06T04:33:47.655Z,8.60
2023-03-06T04:35:50.571Z,8.60
2023-03-06T04:37:57.490Z,8.60
2023-03-06T04:40:01.483Z,8.50
2023-03-06T04:42:03.830Z,8.50
2023-03-06T04:44:05.919Z,8.60
2023-03-06T04:46:08.646Z,8.60
2023-03-06T04:48:12.664Z,8.60
2023-03-06T04:50:14.327Z,8.70
2023-03-06T04:52:15.984Z,8.60
2023-03-06T04:54:19.060Z,8.50
2023-03-06T04:56:20.850Z,8.60
2023-03-06T04:58:22.612Z,8.60
2023-03-06T05:00:25.519Z,8.60
2023-03-06T05:02:27.277Z,8.60
2023-03-06T05:04:28.982Z,8.60
2023-03-06T05:06:30.643Z,8.60
2023-03-06T05:08:32.363Z,8.60
2023-03-06T05:10:34.052Z,8.70
2023-03-06T05:12:37.108Z,8.80
2023-03-06T05:14:38.888Z,8.60
2023-03-06T05:16:40.522Z,8.60
2023-03-06T05:18:42.235Z,8.60
2023-03-06T05:20:43.918Z,8.60
2023-03-06T05:22:45.637Z,8.60
2023-03-06T05:24:47.248Z,8.60
2023-03-06T05:26:49.074Z,8.60
2023-03-06T05:28:50.842Z,8.70
2023-03-06T05:30:52.508Z,8.60
2023-03-06T05:32:54.178Z,8.60
2023-03-06T05:34:55.939Z,8.70
2023-03-06T05:36:57.719Z,8.70
2023-03-06T05:38:59.370Z,8.70
2023-03-06T05:41:01.064Z,8.70
2023-03-06T05:43:02.771Z,8.70
2023-03-06T05:45:04.695Z,8.70
2023-03-06T05:47:06.370Z,8.70
2023-03-06T05:49:08.085Z,8.70
2023-03-06T05:51:10.762Z,8.70
2023-03-06T05:53:12.423Z,8.70
2023-03-06T05:55:15.438Z,8.70
2023-03-06T05:57:18.636Z,8.70
2023-03-06T05:59:20.433Z,8.70
2023-03-06T06:01:22.489Z,8.60
2023-03-06T06:03:24.298Z,8.70
2023-03-06T06:05:25.998Z,8.70
2023-03-06T06:07:27.697Z,8.70
2023-03-06T06:09:29.558Z,8.70
2023-03-06T06:11:31.370Z,8.70
2023-03-06T06:13:33.162Z,8.70
2023-03-06T06:15:35.027Z,8.70
2023-03-06T06:17:36.747Z,8.70
2023-03-06T06:19:38.723Z,8.80
2023-03-06T06:21:40.374Z,8.80
2023-03-06T06:23:42.062Z,8.70
2023-03-06T06:25:43.801Z,8.70
2023-03-06T06:27:45.486Z,8.70
2023-03-06T06:29:49.782Z,8.60
2023-03-06T06:31:52.155Z,8.60
2023-03-06T06:33:53.842Z,8.60
2023-03-06T06:35:55.521Z,8.60
2023-03-06T06:37:57.300Z,8.60
2023-03-06T06:39:58.970Z,8.60
2023-03-06T06:42:25.915Z,8.60
2023-03-06T06:44:23.865Z,8.70
2023-03-06T06:47:09.600Z,8.60
2023-03-06T06:48:48.080Z,8.70
2023-03-06T06:50:56.588Z,8.60
2023-03-06T06:52:58.302Z,8.50
2023-03-06T06:54:59.972Z,8.60
2023-03-06T06:57:01.690Z,8.60
2023-03-06T06:59:16.021Z,8.60
2023-03-06T07:01:18.117Z,8.60
2023-03-06T07:03:19.889Z,8.60
2023-03-06T07:05:22.199Z,8.70
2023-03-06T07:07:25.514Z,8.70
2023-03-06T07:09:30.233Z,8.70
2023-03-06T07:11:31.915Z,8.70
2023-03-06T07:13:34.525Z,8.70
2023-03-06T07:15:36.203Z,8.70
2023-03-06T07:17:38.118Z,8.70
2023-03-06T07:19:39.777Z,8.80
2023-03-06T07:21:41.518Z,8.70
2023-03-06T07:23:43.875Z,8.70
2023-03-06T07:25:45.570Z,8.70
2023-03-06T07:27:53.360Z,8.70
2023-03-06T07:29:56.185Z,8.70
2023-03-06T07:31:57.896Z,8.70
2023-03-06T07:33:59.661Z,8.70
2023-03-06T07:36:01.434Z,8.70
2023-03-06T07:38:03.119Z,8.70
2023-03-06T07:40:06.192Z,8.70
2023-03-06T07:42:07.972Z,8.70
2023-03-06T07:44:09.723Z,8.70
2023-03-06T07:46:12.749Z,8.70
2023-03-06T07:48:14.836Z,8.70
2023-03-06T07:50:16.789Z,8.70
2023-03-06T07:52:18.441Z,8.70
2023-03-06T07:54:20.173Z,8.70
2023-03-06T07:56:23.081Z,8.70
2023-03-06T07:58:24.973Z,8.70
2023-03-06T08:00:26.780Z,8.70
2023-03-06T08:02:28.521Z,8.80
2023-03-06T08:04:30.350Z,8.70
2023-03-06T08:06:32.250Z,8.70
2023-03-06T08:08:34.703Z,8.70
2023-03-06T08:10:36.529Z,8.70
2023-03-06T08:12:38.284Z,8.80
2023-03-06T08:14:40.041Z,8.70
2023-03-06T08:16:41.910Z,8.90
2023-03-06T08:18:46.076Z,8.80
2023-03-06T08:20:48.105Z,8.80
2023-03-06T08:22:49.962Z,8.80
2023-03-06T08:24:54.105Z,8.90
2023-03-06T08:26:55.766Z,8.80
2023-03-06T08:28:58.596Z,8.90
2023-03-06T08:31:07.097Z,8.90
2023-03-06T08:33:08.853Z,8.90
2023-03-06T08:35:10.759Z,8.90
2023-03-06T08:37:14.730Z,8.90
2023-03-06T08:39:16.507Z,9.00
2023-03-06T08:41:19.091Z,9.00
2023-03-06T08:43:22.183Z,9.00
2023-03-06T08:45:23.922Z,9.00
2023-03-06T08:47:25.738Z,9.00
2023-03-06T08:49:27.533Z,9.00
2023-03-06T08:51:29.368Z,9.00
2023-03-06T08:53:42.573Z,9.10
2023-03-06T08:55:44.891Z,9.10
2023-03-06T08:57:46.621Z,9.10
2023-03-06T08:59:48.390Z,9.20
2023-03-06T09:01:50.085Z,9.20
2023-03-06T09:03:55.373Z,9.20
2023-03-06T09:05:57.171Z,9.20
2023-03-06T09:07:58.847Z,9.20
2023-03-06T09:10:00.965Z,9.30
2023-03-06T09:12:02.739Z,9.20
2023-03-06T09:14:05.560Z,9.20
2023-03-06T09:16:07.799Z,9.20
2023-03-06T09:18:09.653Z,9.20
2023-03-06T09:20:11.962Z,9.20
2023-03-06T09:22:13.721Z,9.20
2023-03-06T09:24:15.458Z,9.20
2023-03-06T09:26:17.610Z,9.20
2023-03-06T09:28:19.513Z,9.20
2023-03-06T09:30:21.212Z,9.20
2023-03-06T09:32:23.903Z,9.20
2023-03-06T09:34:27.642Z,9.20
2023-03-06T09:36:29.443Z,9.20
2023-03-06T09:38:32.183Z,9.20
2023-03-06T09:40:42.493Z,9.30
2023-03-06T09:42:46.492Z,9.30
2023-03-06T09:44:53.344Z,9.30
2023-03-06T09:46:55.027Z,9.30
2023-03-06T09:49:12.000Z,9.30
2023-03-06T09:51:16.257Z,9.40
2023-03-06T09:53:21.855Z,9.40
2023-03-06T09:55:28.875Z,9.40
2023-03-06T09:57:38.612Z,9.40
2023-03-06T09:59:42.916Z,9.40
2023-03-06T10:01:51.359Z,9.40
2023-03-06T10:04:03.624Z,9.40
2023-03-06T10:06:18.382Z,9.40
2023-03-06T10:08:35.532Z,9.40
2023-03-06T10:10:40.340Z,9.40
2023-03-06T10:12:48.362Z,9.40
2023-03-06T10:14:55.862Z,9.40
2023-03-06T10:16:58.550Z,9.40
2023-03-06T10:19:01.699Z,9.40
2023-03-06T10:21:18.639Z,9.40
2023-03-06T10:23:24.968Z,9.40
2023-03-06T10:25:28.253Z,9.40
2023-03-06T10:27:40.436Z,9.40
2023-03-06T10:30:02.264Z,9.40
2023-03-06T10:32:27.975Z,9.40
2023-03-06T10:34:33.547Z,9.40
2023-03-06T10:36:35.472Z,9.30
2023-03-06T10:38:38.272Z,9.30
2023-03-06T10:40:47.355Z,9.30
2023-03-06T10:42:56.062Z,9.30
2023-03-06T10:45:12.373Z,9.30
2023-03-06T10:47:29.047Z,9.30
2023-03-06T10:49:32.651Z,9.30
2023-03-06T10:51:35.586Z,9.30
2023-03-06T10:53:48.143Z,9.30
2023-03-06T10:55:59.639Z,9.30
2023-03-06T10:58:30.743Z,9.30
2023-03-06T11:00:38.007Z,9.30
2023-03-06T11:02:40.997Z,9.20
2023-03-06T11:04:46.625Z,9.20
2023-03-06T11:06:48.801Z,9.30
2023-03-06T11:08:50.561Z,9.30
2023-03-06T11:11:00.006Z,9.30
2023-03-06T11:13:04.688Z,9.30
2023-03-06T11:15:06.439Z,9.30
2023-03-06T11:17:26.088Z,9.30
2023-03-06T11:19:28.836Z,9.20
2023-03-06T11:21:33.445Z,9.40
2023-03-06T11:23:40.888Z,9.30
2023-03-06T11:25:48.461Z,9.30
2023-03-06T11:27:56.205Z,9.40
2023-03-06T11:29:59.671Z,9.40
2023-03-06T11:32:17.279Z,9.50
2023-03-06T11:34:19.639Z,9.40
2023-03-06T11:36:27.375Z,9.40
2023-03-06T11:38:48.900Z,9.40
2023-03-06T11:40:56.118Z,9.40
2023-03-06T11:43:20.895Z,9.40
2023-03-06T11:45:33.623Z,9.40
2023-03-06T11:47:39.111Z,9.40
2023-03-06T11:49:44.296Z,9.60
2023-03-06T11:51:51.489Z,9.50
2023-03-06T11:53:53.848Z,9.50
2023-03-06T11:55:55.582Z,9.50
2023-03-06T11:58:10.151Z,9.50
2023-03-06T12:00:25.904Z,9.50
2023-03-06T12:02:27.633Z,9.50
2023-03-06T12:04:38.836Z,9.70
2023-03-06T12:06:46.855Z,9.50
2023-03-06T12:08:54.952Z,9.50
2023-03-06T12:13:28.733Z,9.50
2023-03-06T12:15:36.665Z,9.50
2023-03-06T12:17:44.641Z,9.50
2023-03-06T12:19:52.040Z,9.50
2023-03-06T12:21:56.555Z,9.50
2023-03-06T12:24:07.168Z,9.50
2023-03-06T12:26:27.744Z,9.50
2023-03-06T12:28:32.216Z,9.40
2023-03-06T12:30:36.738Z,9.40
2023-03-06T12:32:38.470Z,9.40
2023-03-06T12:34:58.971Z,9.40
2023-03-06T12:37:12.215Z,9.40
2023-03-06T12:39:30.519Z,9.40
2023-03-06T12:41:50.777Z,9.40
2023-03-06T12:43:55.305Z,9.40
2023-03-06T12:45:59.972Z,9.50
2023-03-06T12:48:02.127Z,9.50
2023-03-06T12:50:13.475Z,9.50
2023-03-06T12:52:29.697Z,9.50
2023-03-06T12:54:35.610Z,9.50
2023-03-06T12:56:38.918Z,9.50
2023-03-06T12:58:48.209Z,9.50
2023-03-06T13:01:05.120Z,9.60
2023-03-06T13:03:06.958Z,9.50
2023-03-06T13:05:14.821Z,9.50
2023-03-06T13:07:27.928Z,9.50
2023-03-06T13:09:35.727Z,9.50
2023-03-06T13:11:43.317Z,9.50
2023-03-06T13:13:46.472Z,9.50
2023-03-06T13:16:09.365Z,9.50
2023-03-06T13:18:23.100Z,9.50
2023-03-06T13:20:35.135Z,9.60
2023-03-06T13:22:37.135Z,9.60
2023-03-06T13:24:39.038Z,9.60
2023-03-06T13:26:40.804Z,9.60
2023-03-06T13:28:49.398Z,9.60
2023-03-06T13:30:52.982Z,9.60
2023-03-06T13:32:55.508Z,9.70
2023-03-06T13:34:57.593Z,9.70
2023-03-06T13:37:17.524Z,9.70
2023-03-06T13:39:19.268Z,9.70
2023-03-06T13:41:21.195Z,9.80
2023-03-06T13:43:22.982Z,9.70
2023-03-06T13:45:38.479Z,9.70
2023-03-06T13:50:37.345Z,9.80
2023-03-06T13:53:00.441Z,9.80
2023-03-06T13:55:07.993Z,9.80
2023-03-06T13:57:38.969Z,9.80
2023-03-06T13:59:54.392Z,9.80
2023-03-06T14:02:10.346Z,9.80
2023-03-06T14:04:18.262Z,9.80
2023-03-06T14:06:43.152Z,9.80
2023-03-06T14:08:44.975Z,9.80
2023-03-06T14:10:48.210Z,9.80
2023-03-06T14:12:49.984Z,9.80
2023-03-06T14:14:56.754Z,9.80
2023-03-06T14:16:58.841Z,9.80
2023-03-06T14:19:01.218Z,9.80
2023-03-06T14:21:04.586Z,9.70
2023-03-06T14:23:16.679Z,9.70
2023-03-06T14:25:30.016Z,9.70
2023-03-06T14:27:39.631Z,9.60
2023-03-06T14:29:44.796Z,9.60
2023-03-06T14:31:48.883Z,9.60
2023-03-06T14:33:55.415Z,9.50
2023-03-06T14:35:59.233Z,9.50
2023-03-06T14:38:02.844Z,9.50
2023-03-06T14:40:09.219Z,9.40
2023-03-06T14:42:20.174Z,9.40
2023-03-06T14:44:23.044Z,9.40
2023-03-06T14:46:24.806Z,9.30
2023-03-06T14:48:38.432Z,9.40
2023-03-06T14:50:41.073Z,9.20
2023-03-06T14:52:43.913Z,9.20
2023-03-06T14:54:46.023Z,9.20
2023-03-06T14:56:49.428Z,9.20
2023-03-06T14:58:57.324Z,9.20
2023-03-06T15:01:01.339Z,9.20
2023-03-06T15:03:05.532Z,9.20
2023-03-06T15:05:13.527Z,9.20
2023-03-06T15:07:21.553Z,9.20
2023-03-06T15:09:26.444Z,9.20
2023-03-06T15:11:48.200Z,9.20
2023-03-06T15:14:00.517Z,9.20
2023-03-06T15:16:05.409Z,9.20
2023-03-06T15:18:28.614Z,9.20
2023-03-06T15:20:36.504Z,9.20
2023-03-06T15:22:40.115Z,9.20
2023-03-06T15:24:41.925Z,9.20
2023-03-06T15:26:43.730Z,9.20
2023-03-06T15:28:47.490Z,9.20
2023-03-06T15:31:02.257Z,9.10
2023-03-06T15:33:10.280Z,9.10
2023-03-06T15:35:24.838Z,9.20
2023-03-06T15:37:28.724Z,9.20
2023-03-06T15:39:32.136Z,9.20
2023-03-06T15:41:35.691Z,9.20
2023-03-06T15:43:39.362Z,9.20
2023-03-06T15:45:41.141Z,9.20
2023-03-06T15:47:43.396Z,9.20
2023-03-06T15:49:45.405Z,9.10
2023-03-06T15:51:47.224Z,9.20
2023-03-06T15:53:49.366Z,9.20
2023-03-06T15:55:52.572Z,9.20
2023-03-06T15:57:59.666Z,9.20
2023-03-06T16:00:01.912Z,9.20
2023-03-06T16:02:17.704Z,9.20
2023-03-06T16:04:20.048Z,9.20
2023-03-06T16:06:26.325Z,9.20
2023-03-06T16:08:28.804Z,9.20
2023-03-06T16:10:33.061Z,9.30
2023-03-06T16:12:35.033Z,9.30
2023-03-06T16:14:36.995Z,9.30
2023-03-06T16:16:39.710Z,9.30
2023-03-06T16:18:41.594Z,9.30
2023-03-06T16:20:43.475Z,9.40
2023-03-06T16:22:46.473Z,9.40
2023-03-06T16:24:48.208Z,9.40
2023-03-06T16:26:51.196Z,9.40
2023-03-06T16:28:53.000Z,9.40
2023-03-06T16:30:54.926Z,9.40
2023-03-06T16:32:57.150Z,9.40
2023-03-06T16:34:58.926Z,9.40
2023-03-06T16:37:00.820Z,9.40
2023-03-06T16:39:03.747Z,9.50
2023-03-06T16:41:05.678Z,9.50
2023-03-06T16:43:08.408Z,9.40
2023-03-06T16:45:10.613Z,9.40
2023-03-06T16:47:13.423Z,9.40
2023-03-06T16:49:17.187Z,9.50
2023-03-06T16:51:20.029Z,9.40
2023-03-06T16:53:21.826Z,9.40
2023-03-06T16:55:24.580Z,9.40
2023-03-06T16:57:28.370Z,9.50
2023-03-06T16:59:31.809Z,9.40
2023-03-06T17:01:33.844Z,9.50
2023-03-06T17:03:36.492Z,9.50
2023-03-06T17:05:38.615Z,9.40
2023-03-06T17:07:40.809Z,9.60
2023-03-06T17:09:43.226Z,9.50
2023-03-06T17:11:46.786Z,9.50
2023-03-06T17:13:48.949Z,9.40
2023-03-06T17:15:56.178Z,9.40
2023-03-06T17:17:58.081Z,9.40
2023-03-06T17:20:00.061Z,9.40
2023-03-06T17:22:01.873Z,9.40
2023-03-06T17:24:03.940Z,9.40
2023-03-06T17:26:07.113Z,9.30
2023-03-06T17:28:08.916Z,9.30
2023-03-06T17:30:11.034Z,9.30
2023-03-06T17:32:12.921Z,9.30
2023-03-06T17:34:14.707Z,9.20
2023-03-06T17:36:16.797Z,9.20
2023-03-06T17:38:18.493Z,9.20
2023-03-06T17:40:20.292Z,9.20
2023-03-06T17:42:22.024Z,9.20
2023-03-06T17:44:23.887Z,9.20
2023-03-06T17:46:26.006Z,9.10
2023-03-06T17:48:27.846Z,9.10
2023-03-06T17:50:29.606Z,9.00
2023-03-06T17:52:31.741Z,9.00
2023-03-06T17:54:33.616Z,9.00
2023-03-06T17:56:35.622Z,9.00
2023-03-06T17:58:37.411Z,9.00
2023-03-06T18:00:39.906Z,8.90
2023-03-06T18:02:41.748Z,8.90
2023-03-06T18:04:43.801Z,8.90
2023-03-06T18:06:46.412Z,8.90
2023-03-06T18:08:51.012Z,8.80
2023-03-06T18:11:01.171Z,8.80
2023-03-06T18:13:02.951Z,8.80
2023-03-06T18:15:04.978Z,8.80
2023-03-06T18:17:06.853Z,8.70
2023-03-06T18:19:10.859Z,8.80
2023-03-06T18:21:14.290Z,8.70
2023-03-06T18:23:16.089Z,8.80
2023-03-06T18:25:17.906Z,8.70
2023-03-06T18:27:20.806Z,8.70
2023-03-06T18:29:22.639Z,8.70
2023-03-06T18:31:28.830Z,8.80
2023-03-06T18:33:30.641Z,8.80
2023-03-06T18:35:33.347Z,8.80
2023-03-06T18:37:35.119Z,8.90
2023-03-06T18:39:36.892Z,8.70
2023-03-06T18:41:38.685Z,8.80
2023-03-06T18:43:40.464Z,8.80
2023-03-06T18:45:44.299Z,8.90
2023-03-06T18:47:46.392Z,8.80
2023-03-06T18:49:48.214Z,8.80
2023-03-06T18:51:50.311Z,8.80
2023-03-06T18:53:52.148Z,8.70
2023-03-06T18:55:56.595Z,8.70
2023-03-06T18:57:58.560Z,8.70
2023-03-06T19:00:00.541Z,8.80
2023-03-06T19:02:02.263Z,8.70
2023-03-06T19:04:04.397Z,8.80
2023-03-06T19:06:10.539Z,8.80
2023-03-06T19:08:12.425Z,8.80
2023-03-06T19:10:16.761Z,8.80
2023-03-06T19:12:18.638Z,8.90
2023-03-06T19:14:21.453Z,8.80
2023-03-06T19:16:24.518Z,8.80
2023-03-06T19:18:27.035Z,8.90
2023-03-06T19:20:28.920Z,8.90
2023-03-06T19:22:31.678Z,8.90
2023-03-06T19:24:34.565Z,8.90
2023-03-06T19:26:49.587Z,8.90
2023-03-06T19:29:03.184Z,8.90
2023-03-06T19:31:10.883Z,8.80
2023-03-06T19:33:22.579Z,8.80
2023-03-06T19:35:24.885Z,8.80
2023-03-06T19:37:26.840Z,8.80
2023-03-06T19:39:28.694Z,8.80
2023-03-06T19:41:30.532Z,8.80
2023-03-06T19:43:32.419Z,8.80
2023-03-06T19:45:34.375Z,8.80
2023-03-06T19:47:36.212Z,8.80
2023-03-06T19:49:38.775Z,8.80
2023-03-06T19:51:40.719Z,8.80
2023-03-06T19:53:42.562Z,8.80
2023-03-06T19:55:44.438Z,8.80
2023-03-06T19:57:46.400Z,8.80
2023-03-06T19:59:51.601Z,8.80
2023-03-06T20:01:53.394Z,8.80
2023-03-06T20:03:58.772Z,8.80
2023-03-06T20:06:01.174Z,8.90
2023-03-06T20:08:02.989Z,8.80
2023-03-06T20:10:06.013Z,8.80
2023-03-06T20:12:08.352Z,8.90
2023-03-06T20:14:11.043Z,8.80
2023-03-06T20:16:12.969Z,8.90
2023-03-06T20:18:14.948Z,8.90
2023-03-06T20:20:18.677Z,8.90
2023-03-06T20:22:23.662Z,8.80
2023-03-06T20:24:26.284Z,8.80
2023-03-06T20:26:29.044Z,8.80
2023-03-06T20:28:30.936Z,8.90
2023-03-06T20:30:38.128Z,8.80
2023-03-06T20:32:40.344Z,8.90
2023-03-06T20:34:42.358Z,8.90
2023-03-06T20:36:44.271Z,9.00
2023-03-06T20:38:47.011Z,8.80
2023-03-06T20:40:58.521Z,8.80
2023-03-06T20:43:00.494Z,8.90
2023-03-06T20:45:02.685Z,8.80
2023-03-06T20:47:04.533Z,8.80
2023-03-06T20:49:07.689Z,8.80
2023-03-06T20:51:15.656Z,8.80
2023-03-06T20:53:17.598Z,8.80
2023-03-06T20:55:19.648Z,8.80
2023-03-06T20:57:21.473Z,8.80
2023-03-06T20:59:23.872Z,8.80
2023-03-06T21:01:26.839Z,8.80
2023-03-06T21:03:29.332Z,8.80
2023-03-06T21:05:31.057Z,8.80
2023-03-06T21:07:32.854Z,8.80
2023-03-06T21:09:37.638Z,8.80
2023-03-06T21:11:39.715Z,8.80
2023-03-06T21:13:41.705Z,8.80
2023-03-06T21:15:44.168Z,8.70
2023-03-06T21:17:45.957Z,8.80
2023-03-06T21:19:47.876Z,8.80
2023-03-06T21:21:50.346Z,8.70
2023-03-06T21:23:52.269Z,8.70
2023-03-06T21:25:54.232Z,8.70
2023-03-06T21:27:56.174Z,8.70
2023-03-06T21:29:57.999Z,8.60
2023-03-06T21:31:59.750Z,8.60
2023-03-06T21:34:04.597Z,8.60
2023-03-06T21:36:07.267Z,8.60
2023-03-06T21:38:09.093Z,8.60
2023-03-06T21:40:11.611Z,8.60
2023-03-06T21:42:13.332Z,8.60
2023-03-06T21:44:15.131Z,8.60
2023-03-06T21:46:17.191Z,8.60
2023-03-06T21:48:19.192Z,8.60
2023-03-06T21:50:22.170Z,8.60
2023-03-06T21:52:26.236Z,8.60
2023-03-06T21:54:29.247Z,8.60
2023-03-06T21:56:33.101Z,8.60
2023-03-06T21:58:35.020Z,8.50
2023-03-06T22:00:36.883Z,8.50
2023-03-06T22:02:38.952Z,8.70
2023-03-06T22:04:41.608Z,8.60
2023-03-06T22:06:43.382Z,8.50
2023-03-06T22:08:45.743Z,8.50
2023-03-06T22:10:48.614Z,8.50
2023-03-06T22:12:50.343Z,8.50
2023-03-06T22:14:52.271Z,8.40
2023-03-06T22:16:54.164Z,8.50
2023-03-06T22:19:02.180Z,8.40
2023-03-06T22:21:10.985Z,8.40
2023-03-06T22:23:12.781Z,8.40
2023-03-06T22:25:14.850Z,8.60
2023-03-06T22:27:16.769Z,8.40
2023-03-06T22:29:18.645Z,8.40
2023-03-06T22:31:26.235Z,8.40
2023-03-06T22:33:27.995Z,8.40
2023-03-06T22:35:29.787Z,8.40
2023-03-06T22:37:31.523Z,8.40
2023-03-06T22:39:33.317Z,8.40
2023-03-06T22:41:35.114Z,8.30
2023-03-06T22:43:36.949Z,8.30
2023-03-06T22:45:38.691Z,8.30
2023-03-06T22:47:40.499Z,8.30
2023-03-06T22:49:42.261Z,8.30
2023-03-06T22:51:44.031Z,8.20
2023-03-06T22:53:46.400Z,8.20
2023-03-06T22:55:48.174Z,8.20
2023-03-06T22:57:49.923Z,8.20
2023-03-06T22:59:51.675Z,8.20
2023-03-06T23:01:53.323Z,8.20
2023-03-06T23:03:56.311Z,8.20
2023-03-06T23:05:58.153Z,8.10
2023-03-06T23:07:59.959Z,8.10
2023-03-06T23:10:01.740Z,8.10
2023-03-06T23:12:22.269Z,8.10
2023-03-06T23:14:43.655Z,8.00
2023-03-06T23:17:04.775Z,8.00
2023-03-06T23:19:25.759Z,8.00
2023-03-06T23:21:46.071Z,8.00
2023-03-06T23:24:06.940Z,8.00
2023-03-06T23:26:08.794Z,8.00
2023-03-06T23:28:10.868Z,8.00
2023-03-06T23:30:12.952Z,8.10
2023-03-06T23:32:14.661Z,8.10
2023-03-06T23:34:16.422Z,8.10
2023-03-06T23:36:18.570Z,8.10
2023-03-06T23:38:20.328Z,8.20
2023-03-06T23:40:22.653Z,8.10
2023-03-06T23:42:24.802Z,8.20
2023-03-06T23:44:26.971Z,8.20
2023-03-06T23:46:28.644Z,8.20
2023-03-06T23:48:30.331Z,8.20
2023-03-06T23:50:32.330Z,8.30
2023-03-06T23:52:34.192Z,8.20
2023-03-06T23:54:35.874Z,8.20
2023-03-06T23:56:37.830Z,8.20
2023-03-06T23:58:40.029Z,8.20
